createdAt,value
2023-03-29T00:00:17.556Z,98076.03
2023-03-29T00:05:38.345Z,98063.03
2023-03-29T00:08:05.684Z,98057.34
2023-03-29T00:10:42.893Z,98063.09
2023-03-29T00:13:14.239Z,98057.41
2023-03-29T00:15:41.248Z,98056.00
2023-03-29T00:18:14.443Z,98058.28
2023-03-29T00:20:46.557Z,98054.44
2023-03-29T00:26:32.978Z,98052.66
2023-03-29T00:29:11.288Z,98042.28
2023-03-29T00:31:46.483Z,98050.66
2023-03-29T00:34:14.047Z,98035.38
2023-03-29T00:36:40.583Z,98032.16
2023-03-29T00:39:07.016Z,98026.25
2023-03-29T00:41:33.704Z,98024.03
2023-03-29T00:44:02.781Z,98016.28
2023-03-29T00:46:29.358Z,98019.38
2023-03-29T00:48:57.130Z,98020.84
2023-03-29T00:51:23.616Z,98005.16
2023-03-29T00:53:50.190Z,98012.72
2023-03-29T00:56:18.545Z,98015.00
2023-03-29T00:58:44.924Z,98018.09
2023-03-29T01:01:11.240Z,98005.25
2023-03-29T01:03:37.970Z,98010.41
2023-03-29T01:06:04.496Z,98002.06
2023-03-29T01:08:34.021Z,97999.03
2023-03-29T01:11:00.719Z,97999.47
2023-03-29T01:13:27.506Z,97994.63
2023-03-29T01:15:54.006Z,98002.97
2023-03-29T01:18:20.768Z,97976.91
2023-03-29T01:20:47.209Z,97986.31
2023-03-29T01:23:13.617Z,97988.38
2023-03-29T01:25:40.453Z,97978.19
2023-03-29T01:28:07.800Z,97975.97
2023-03-29T01:30:35.271Z,97975.38
2023-03-29T01:33:01.823Z,97972.13
2023-03-29T01:35:28.445Z,97963.59
2023-03-29T01:37:54.828Z,97961.97
2023-03-29T01:40:22.097Z,97960.50
2023-03-29T01:42:48.548Z,97949.34
2023-03-29T01:45:15.023Z,97951.41
2023-03-29T01:47:41.480Z,97943.06
2023-03-29T01:50:07.902Z,97939.00
2023-03-29T01:52:34.192Z,97941.25
2023-03-29T01:55:01.540Z,97944.94
2023-03-29T01:57:28.001Z,97945.97
2023-03-29T01:59:54.478Z,97933.97
2023-03-29T02:02:23.624Z,97938.44
2023-03-29T02:04:50.020Z,97934.41
2023-03-29T02:07:16.424Z,97934.59
2023-03-29T02:09:42.782Z,97929.50
2023-03-29T02:12:09.066Z,97923.84
2023-03-29T02:14:35.451Z,97928.34
2023-03-29T02:17:03.822Z,97919.56
2023-03-29T02:19:34.423Z,97913.69
2023-03-29T02:22:03.430Z,97910.22
2023-03-29T02:24:30.075Z,97915.94
2023-03-29T02:26:57.078Z,97917.19
2023-03-29T02:29:24.386Z,97920.25
2023-03-29T02:31:50.628Z,97911.69
2023-03-29T02:34:16.969Z,97911.13
2023-03-29T02:36:43.228Z,97906.84
2023-03-29T02:39:09.533Z,97902.81
2023-03-29T02:41:38.067Z,97902.19
2023-03-29T02:44:04.706Z,97898.13
2023-03-29T02:46:31.749Z,97892.22
2023-03-29T02:48:59.293Z,97879.22
2023-03-29T02:51:25.591Z,97875.16
2023-03-29T02:53:52.590Z,97872.94
2023-03-29T02:56:19.464Z,97869.09
2023-03-29T02:58:45.748Z,97864.81
2023-03-29T03:01:12.130Z,97869.72
2023-03-29T03:03:41.654Z,97864.66
2023-03-29T03:06:09.209Z,97862.44
2023-03-29T03:08:35.945Z,97864.47
2023-03-29T03:11:03.527Z,97860.41
2023-03-29T03:13:40.883Z,97856.16
2023-03-29T03:16:07.330Z,97858.19
2023-03-29T03:18:34.210Z,97847.00
2023-03-29T03:21:00.690Z,97850.09
2023-03-29T03:23:27.467Z,97842.59
2023-03-29T03:25:53.838Z,97835.88
2023-03-29T03:28:20.219Z,97832.63
2023-03-29T03:30:47.959Z,97833.88
2023-03-29T03:33:18.420Z,97834.88
2023-03-29T03:35:44.862Z,97850.19
2023-03-29T03:38:14.068Z,97846.72
2023-03-29T03:40:40.468Z,97844.50
2023-03-29T03:43:07.591Z,97843.06
2023-03-29T03:45:35.364Z,97838.22
2023-03-29T03:48:01.882Z,97845.53
2023-03-29T03:50:28.644Z,97844.13
2023-03-29T03:52:55.841Z,97844.34
2023-03-29T03:55:22.095Z,97831.53
2023-03-29T03:57:49.578Z,97829.91
2023-03-29T04:00:15.910Z,97829.31
2023-03-29T04:02:44.540Z,97826.88
2023-03-29T04:05:12.148Z,97822.78
2023-03-29T04:07:39.648Z,97816.09
2023-03-29T04:10:06.150Z,97814.47
2023-03-29T04:12:32.322Z,97816.50
2023-03-29T04:14:59.048Z,97818.56
2023-03-29T04:17:25.733Z,97809.00
2023-03-29T04:19:52.118Z,97803.13
2023-03-29T04:22:18.826Z,97808.63
2023-03-29T04:24:45.148Z,97824.69
2023-03-29T04:27:11.575Z,97807.41
2023-03-29T04:29:38.113Z,97812.09
2023-03-29T04:32:04.441Z,97810.47
2023-03-29T04:34:30.792Z,97812.31
2023-03-29T04:36:57.261Z,97809.06
2023-03-29T04:39:23.589Z,97801.34
2023-03-29T04:41:50.318Z,97804.19
2023-03-29T04:44:16.633Z,97794.03
2023-03-29T04:46:43.951Z,97796.69
2023-03-29T04:49:10.250Z,97786.53
2023-03-29T04:51:37.900Z,97786.72
2023-03-29T04:54:06.731Z,97793.03
2023-03-29T04:56:33.515Z,97780.88
2023-03-29T04:58:59.949Z,97785.75
2023-03-29T05:01:27.041Z,97777.22
2023-03-29T05:03:56.306Z,97770.28
2023-03-29T05:06:22.734Z,97781.69
2023-03-29T05:08:49.156Z,97786.56
2023-03-29T05:11:15.659Z,97778.88
2023-03-29T05:13:42.082Z,97789.44
2023-03-29T05:16:08.561Z,97780.91
2023-03-29T05:18:35.119Z,97785.38
2023-03-29T05:21:01.786Z,97777.66
2023-03-29T05:23:28.417Z,97781.31
2023-03-29T05:25:54.853Z,97769.97
2023-03-29T05:28:21.146Z,97771.75
2023-03-29T05:30:47.396Z,97764.03
2023-03-29T05:33:13.699Z,97761.41
2023-03-29T05:35:41.432Z,97758.97
2023-03-29T05:38:07.905Z,97765.06
2023-03-29T05:40:35.211Z,97762.81
2023-03-29T05:43:04.016Z,97770.75
2023-03-29T05:45:30.423Z,97765.47
2023-03-29T05:47:57.026Z,97761.22
2023-03-29T05:50:23.349Z,97752.47
2023-03-29T05:52:49.637Z,97750.66
2023-03-29T05:55:16.505Z,97764.69
2023-03-29T05:57:43.145Z,97754.91
2023-03-29T06:00:10.498Z,97764.47
2023-03-29T06:02:37.134Z,97767.09
2023-03-29T06:05:04.049Z,97767.72
2023-03-29T06:07:53.014Z,97753.44
2023-03-29T06:10:43.183Z,97757.09
2023-03-29T06:13:10.872Z,97757.19
2023-03-29T06:15:39.273Z,97767.09
2023-03-29T06:18:05.731Z,97764.56
2023-03-29T06:20:32.038Z,97768.00
2023-03-29T06:22:58.355Z,97761.66
2023-03-29T06:25:24.621Z,97770.41
2023-03-29T06:27:50.894Z,97762.25
2023-03-29T06:30:17.246Z,97772.47
2023-03-29T06:32:54.268Z,97770.44
2023-03-29T06:35:20.713Z,97766.56
2023-03-29T06:37:47.241Z,97772.16
2023-03-29T06:40:13.637Z,97771.25
2023-03-29T06:42:40.618Z,97787.25
2023-03-29T06:45:07.706Z,97781.34
2023-03-29T06:47:35.419Z,97796.72
2023-03-29T06:50:01.912Z,97791.66
2023-03-29T06:52:28.322Z,97798.00
2023-03-29T06:54:54.542Z,97805.41
2023-03-29T06:57:20.909Z,97790.69
2023-03-29T06:59:47.235Z,97792.56
2023-03-29T07:02:13.590Z,97795.69
2023-03-29T07:04:39.983Z,97797.78
2023-03-29T07:07:06.491Z,97799.25
2023-03-29T07:09:32.885Z,97797.50
2023-03-29T07:11:59.360Z,97791.00
2023-03-29T07:14:25.654Z,97797.81
2023-03-29T07:16:51.961Z,97791.06
2023-03-29T07:19:21.388Z,97786.97
2023-03-29T07:21:48.097Z,97789.81
2023-03-29T07:24:14.370Z,97787.38
2023-03-29T07:26:52.331Z,97788.13
2023-03-29T07:29:23.104Z,97780.13
2023-03-29T07:31:49.334Z,97785.53
2023-03-29T07:34:16.106Z,97782.78
2023-03-29T07:36:42.384Z,97789.81
2023-03-29T07:39:08.994Z,97793.53
2023-03-29T07:41:35.245Z,97792.06
2023-03-29T07:44:03.301Z,97784.63
2023-03-29T07:46:31.490Z,97789.09
2023-03-29T07:48:57.856Z,97795.16
2023-03-29T07:51:24.129Z,97780.06
2023-03-29T07:53:51.148Z,97792.34
2023-03-29T07:56:17.448Z,97779.19
2023-03-29T07:58:44.453Z,97786.88
2023-03-29T08:01:12.867Z,97782.81
2023-03-29T08:03:41.233Z,97781.22
2023-03-29T08:06:07.500Z,97776.22
2023-03-29T08:08:33.774Z,97780.53
2023-03-29T08:11:00.346Z,97783.78
2023-03-29T08:13:27.449Z,97782.50
2023-03-29T08:15:54.142Z,97790.06
2023-03-29T08:18:20.505Z,97794.84
2023-03-29T08:20:47.525Z,97807.13
2023-03-29T08:23:13.845Z,97823.91
2023-03-29T08:25:41.009Z,97817.63
2023-03-29T08:28:07.446Z,97790.59
2023-03-29T08:30:33.936Z,97787.56
2023-03-29T08:33:00.861Z,97790.66
2023-03-29T08:35:27.610Z,97794.22
2023-03-29T08:37:55.296Z,97776.78
2023-03-29T08:40:21.905Z,97763.75
2023-03-29T08:42:48.381Z,97782.81
2023-03-29T08:45:14.629Z,97795.56
2023-03-29T08:47:41.016Z,97803.25
2023-03-29T08:50:07.282Z,97777.84
2023-03-29T08:52:33.503Z,97787.53
2023-03-29T08:54:59.757Z,97779.78
2023-03-29T08:57:26.637Z,97772.84
2023-03-29T08:59:52.975Z,97778.50
2023-03-29T09:02:19.350Z,97786.31
2023-03-29T09:04:46.524Z,97780.88
2023-03-29T09:07:12.929Z,97776.47
2023-03-29T09:09:39.203Z,97769.50
2023-03-29T09:12:05.513Z,97773.19
2023-03-29T09:14:31.789Z,97781.78
2023-03-29T09:16:58.101Z,97774.06
2023-03-29T09:19:25.080Z,97765.44
2023-03-29T09:21:52.005Z,97766.53
2023-03-29T09:24:18.337Z,97781.41
2023-03-29T09:26:44.659Z,97767.81
2023-03-29T09:29:10.875Z,97762.75
2023-03-29T09:31:37.423Z,97765.41
2023-03-29T09:34:03.703Z,97751.22
2023-03-29T09:36:29.988Z,97762.22
2023-03-29T09:38:56.208Z,97757.00
2023-03-29T09:41:24.158Z,97756.75
2023-03-29T09:43:50.366Z,97753.78
2023-03-29T09:46:18.276Z,97752.13
2023-03-29T09:48:45.968Z,97743.00
2023-03-29T09:51:12.269Z,97753.69
2023-03-29T09:53:38.625Z,97756.38
2023-03-29T09:56:04.873Z,97759.06
2023-03-29T09:58:31.206Z,97762.22
2023-03-29T10:00:58.114Z,97750.97
2023-03-29T10:03:25.490Z,97755.78
2023-03-29T10:05:51.948Z,97746.97
2023-03-29T10:08:19.878Z,97745.88
2023-03-29T10:10:47.057Z,97753.34
2023-03-29T10:13:13.384Z,97747.47
2023-03-29T10:15:39.955Z,97754.94
2023-03-29T10:18:08.023Z,97755.50
2023-03-29T10:20:35.635Z,97763.28
2023-03-29T10:23:02.856Z,97753.63
2023-03-29T10:25:29.142Z,97759.00
2023-03-29T10:27:56.585Z,97770.00
2023-03-29T10:33:04.981Z,97754.75
2023-03-29T10:35:31.929Z,97760.66
2023-03-29T10:37:58.760Z,97755.06
2023-03-29T10:40:26.286Z,97745.47
2023-03-29T10:42:53.827Z,97745.50
2023-03-29T10:45:20.919Z,97743.09
2023-03-29T10:47:47.228Z,97743.91
2023-03-29T10:50:13.573Z,97732.16
2023-03-29T10:52:39.787Z,97730.56
2023-03-29T10:55:06.065Z,97728.44
2023-03-29T10:57:32.711Z,97736.19
2023-03-29T10:59:59.873Z,97728.72
2023-03-29T11:02:30.900Z,97728.19
2023-03-29T11:04:57.447Z,97735.41
2023-03-29T11:07:23.938Z,97729.00
2023-03-29T11:09:51.792Z,97740.50
2023-03-29T11:12:18.168Z,97735.69
2023-03-29T11:14:44.577Z,97720.72
2023-03-29T11:17:13.422Z,97730.59
2023-03-29T11:19:39.919Z,97727.94
2023-03-29T11:22:08.981Z,97740.22
2023-03-29T11:24:36.687Z,97734.09
2023-03-29T11:27:03.136Z,97733.03
2023-03-29T11:32:22.174Z,97730.91
2023-03-29T11:34:48.772Z,97725.53
2023-03-29T11:37:15.989Z,97710.50
2023-03-29T11:39:43.664Z,97719.66
2023-03-29T11:42:11.042Z,97726.63
2023-03-29T11:44:38.010Z,97722.88
2023-03-29T11:47:04.560Z,97723.69
2023-03-29T11:49:30.983Z,97726.91
2023-03-29T11:51:58.393Z,97731.47
2023-03-29T11:54:24.663Z,97729.88
2023-03-29T11:56:51.905Z,97726.38
2023-03-29T11:59:19.710Z,97724.50
2023-03-29T12:01:46.612Z,97705.22
2023-03-29T12:04:14.742Z,97708.44
2023-03-29T12:06:41.770Z,97719.66
2023-03-29T12:09:08.473Z,97717.81
2023-03-29T12:11:34.952Z,97713.28
2023-03-29T12:14:01.340Z,97702.28
2023-03-29T12:16:28.353Z,97695.84
2023-03-29T12:18:54.737Z,97700.69
2023-03-29T12:21:21.467Z,97699.34
2023-03-29T12:23:48.370Z,97692.91
2023-03-29T12:26:14.743Z,97694.25
2023-03-29T12:28:41.220Z,97696.41
2023-03-29T12:31:07.551Z,97690.28
2023-03-29T12:33:33.828Z,97694.81
2023-03-29T12:36:00.181Z,97687.59
2023-03-29T12:38:46.454Z,97684.94
2023-03-29T12:41:12.797Z,97688.13
2023-03-29T12:43:39.122Z,97686.00
2023-03-29T12:46:08.043Z,97685.47
2023-03-29T12:48:34.424Z,97683.31
2023-03-29T12:51:00.861Z,97683.09
2023-03-29T12:53:29.884Z,97685.50
2023-03-29T12:55:57.663Z,97677.47
2023-03-29T12:58:25.360Z,97682.00
2023-03-29T13:00:53.108Z,97677.97
2023-03-29T13:03:22.566Z,97672.38
2023-03-29T13:05:49.263Z,97670.47
2023-03-29T13:08:15.659Z,97664.06
2023-03-29T13:10:42.108Z,97664.06
2023-03-29T13:13:08.407Z,97652.00
2023-03-29T13:15:36.770Z,97648.53
2023-03-29T13:18:03.221Z,97648.28
2023-03-29T13:20:29.801Z,97646.66
2023-03-29T13:22:57.492Z,97643.72
2023-03-29T13:25:23.862Z,97642.09
2023-03-29T13:27:50.345Z,97646.91
2023-03-29T13:30:23.278Z,97639.69
2023-03-29T13:32:53.333Z,97633.53
2023-03-29T13:35:21.810Z,97627.13
2023-03-29T13:37:51.369Z,97622.03
2023-03-29T13:40:17.930Z,97613.19
2023-03-29T13:42:47.206Z,97606.75
2023-03-29T13:45:13.525Z,97609.16
2023-03-29T13:47:40.247Z,97616.97
2023-03-29T13:50:07.355Z,97615.88
2023-03-29T13:52:33.543Z,97610.25
2023-03-29T13:54:59.752Z,97614.53
2023-03-29T13:57:25.990Z,97616.97
2023-03-29T13:59:52.211Z,97610.78
2023-03-29T14:02:18.538Z,97615.88
2023-03-29T14:04:45.083Z,97599.81
2023-03-29T14:07:13.636Z,97606.25
2023-03-29T14:09:40.198Z,97602.75
2023-03-29T14:12:06.520Z,97604.63
2023-03-29T14:14:37.187Z,97592.03
2023-03-29T14:17:06.792Z,97605.16
2023-03-29T14:19:33.081Z,97597.41
2023-03-29T14:21:59.355Z,97593.91
2023-03-29T14:24:25.595Z,97592.03
2023-03-29T14:26:51.953Z,97596.59
2023-03-29T14:29:18.342Z,97596.84
2023-03-29T14:31:44.636Z,97588.00
2023-03-29T14:34:11.015Z,97583.47
2023-03-29T14:36:39.643Z,97575.44
2023-03-29T14:39:06.021Z,97586.94
2023-03-29T14:41:32.385Z,97583.47
2023-03-29T14:43:58.749Z,97577.28
2023-03-29T14:46:25.076Z,97577.28
2023-03-29T14:48:51.515Z,97578.09
2023-03-29T14:51:20.587Z,97577.03
2023-03-29T14:53:53.568Z,97576.78
2023-03-29T14:56:20.069Z,97572.47
2023-03-29T14:58:46.515Z,97581.31
2023-03-29T15:01:15.584Z,97576.50
2023-03-29T15:03:44.610Z,97579.97
2023-03-29T15:06:11.363Z,97578.38
2023-03-29T15:08:37.806Z,97573.03
2023-03-29T15:11:06.353Z,97570.06
2023-03-29T15:13:32.849Z,97558.53
2023-03-29T15:15:59.381Z,97554.81
2023-03-29T15:18:25.700Z,97567.13
2023-03-29T15:20:52.012Z,97562.56
2023-03-29T15:23:18.408Z,97554.28
2023-03-29T15:25:44.992Z,97560.47
2023-03-29T15:28:11.415Z,97561.28
2023-03-29T15:30:37.749Z,97556.69
2023-03-29T15:33:04.145Z,97549.47
2023-03-29T15:35:30.700Z,97539.56
2023-03-29T15:37:57.039Z,97536.91
2023-03-29T15:40:24.410Z,97536.91
2023-03-29T15:42:50.773Z,97537.69
2023-03-29T15:45:17.084Z,97540.34
2023-03-29T15:47:43.436Z,97526.97
2023-03-29T15:50:10.196Z,97526.97
2023-03-29T15:52:36.498Z,97518.16
2023-03-29T15:55:02.874Z,97510.13
2023-03-29T15:57:29.368Z,97516.53
2023-03-29T15:59:55.719Z,97508.75
2023-03-29T16:02:22.167Z,97515.75
2023-03-29T16:04:48.818Z,97517.84
2023-03-29T16:07:15.187Z,97514.34
2023-03-29T16:09:41.463Z,97513.81
2023-03-29T16:12:07.954Z,97515.69
2023-03-29T16:14:34.341Z,97520.53
2023-03-29T16:17:00.621Z,97532.31
2023-03-29T16:19:27.230Z,97521.06
2023-03-29T16:21:53.453Z,97514.09
2023-03-29T16:24:19.688Z,97514.38
2023-03-29T16:26:45.881Z,97502.84
2023-03-29T16:29:13.403Z,97504.22
2023-03-29T16:31:39.791Z,97512.47
2023-03-29T16:34:06.046Z,97518.38
2023-03-29T16:36:32.310Z,97515.16
2023-03-29T16:39:00.618Z,97510.91
2023-03-29T16:41:26.853Z,97515.72
2023-03-29T16:43:53.141Z,97515.16
2023-03-29T16:46:19.793Z,97512.75
2023-03-29T16:48:46.394Z,97513.03
2023-03-29T16:51:15.717Z,97514.34
2023-03-29T16:53:42.162Z,97513.03
2023-03-29T16:56:08.457Z,97513.31
2023-03-29T16:58:34.670Z,97510.09
2023-03-29T17:01:00.901Z,97510.38
2023-03-29T17:03:27.161Z,97506.34
2023-03-29T17:05:53.385Z,97505.78
2023-03-29T17:08:19.654Z,97512.50
2023-03-29T17:10:45.856Z,97502.06
2023-03-29T17:13:12.104Z,97495.34
2023-03-29T17:15:39.721Z,97493.75
2023-03-29T17:18:06.304Z,97494.81
2023-03-29T17:20:32.599Z,97492.13
2023-03-29T17:22:58.894Z,97487.06
2023-03-29T17:25:25.116Z,97492.41
2023-03-29T17:27:51.438Z,97491.88
2023-03-29T17:30:17.724Z,97487.31
2023-03-29T17:32:43.976Z,97483.84
2023-03-29T17:35:10.268Z,97489.47
2023-03-29T17:37:36.528Z,97484.09
2023-03-29T17:40:02.789Z,97482.25
2023-03-29T17:42:29.045Z,97480.34
2023-03-29T17:44:55.310Z,97475.00
2023-03-29T17:47:22.024Z,97461.34
2023-03-29T17:49:48.322Z,97492.13
2023-03-29T17:52:14.646Z,97488.66
2023-03-29T17:54:41.122Z,97481.44
2023-03-29T17:57:07.515Z,97481.69
2023-03-29T17:59:34.706Z,97480.06
2023-03-29T18:02:01.104Z,97483.84
2023-03-29T18:04:27.524Z,97484.09
2023-03-29T18:06:53.970Z,97484.38
2023-03-29T18:09:28.046Z,97479.03
2023-03-29T18:12:01.117Z,97477.41
2023-03-29T18:14:28.412Z,97473.13
2023-03-29T18:16:55.059Z,97475.81
2023-03-29T18:19:22.842Z,97462.69
2023-03-29T18:21:49.279Z,97461.63
2023-03-29T18:24:15.633Z,97468.06
2023-03-29T18:26:41.918Z,97458.41
2023-03-29T18:29:09.868Z,97462.16
2023-03-29T18:31:36.376Z,97453.31
2023-03-29T18:34:02.593Z,97444.47
2023-03-29T18:39:25.205Z,97443.97
2023-03-29T18:41:51.489Z,97446.66
2023-03-29T18:44:17.836Z,97441.56
2023-03-29T18:46:44.832Z,97439.94
2023-03-29T18:52:02.331Z,97440.22
2023-03-29T18:54:28.716Z,97436.72
2023-03-29T18:56:56.676Z,97437.00
2023-03-29T18:59:28.126Z,97435.41
2023-03-29T19:01:57.716Z,97428.44
2023-03-29T19:04:26.919Z,97426.84
2023-03-29T19:06:53.479Z,97428.69
2023-03-29T19:09:19.735Z,97430.53
2023-03-29T19:11:46.135Z,97434.03
2023-03-29T19:14:12.482Z,97426.03
2023-03-29T19:16:41.526Z,97430.53
2023-03-29T19:19:13.303Z,97422.28
2023-03-29T19:21:39.588Z,97423.06
2023-03-29T19:24:05.868Z,97407.03
2023-03-29T19:26:40.940Z,97403.56
2023-03-29T19:29:07.620Z,97399.28
2023-03-29T19:31:47.996Z,97398.44
2023-03-29T19:34:14.372Z,97392.88
2023-03-29T19:36:40.854Z,97397.41
2023-03-29T19:39:07.246Z,97394.16
2023-03-29T19:41:33.575Z,97399.50
2023-03-29T19:43:59.826Z,97403.28
2023-03-29T19:46:32.518Z,97395.47
2023-03-29T19:49:11.095Z,97399.25
2023-03-29T19:51:37.355Z,97391.50
2023-03-29T19:54:03.580Z,97371.94
2023-03-29T19:56:31.298Z,97383.72
2023-03-29T19:58:57.817Z,97376.50
2023-03-29T20:01:24.204Z,97374.91
2023-03-29T20:03:50.627Z,97380.53
2023-03-29T20:06:16.987Z,97372.50
2023-03-29T20:08:43.285Z,97358.59
2023-03-29T20:11:09.588Z,97357.78
2023-03-29T20:13:38.805Z,97357.00
2023-03-29T20:16:05.418Z,97353.50
2023-03-29T20:18:31.688Z,97350.28
2023-03-29T20:20:58.070Z,97361.00
2023-03-29T20:23:24.331Z,97350.56
2023-03-29T20:25:50.709Z,97351.38
2023-03-29T20:28:18.054Z,97344.41
2023-03-29T20:30:44.619Z,97338.25
2023-03-29T20:33:11.096Z,97336.38
2023-03-29T20:35:37.397Z,97321.97
2023-03-29T20:38:04.066Z,97326.50
2023-03-29T20:40:30.578Z,97328.91
2023-03-29T20:42:57.225Z,97324.34
2023-03-29T20:45:25.742Z,97322.47
2023-03-29T20:47:52.504Z,97323.53
2023-03-29T20:50:19.044Z,97314.72
2023-03-29T20:52:49.931Z,97311.25
2023-03-29T20:55:16.291Z,97308.59
2023-03-29T20:57:42.706Z,97300.56
2023-03-29T21:00:10.333Z,97295.22
2023-03-29T21:02:36.698Z,97292.78
2023-03-29T21:05:03.178Z,97286.66
2023-03-29T21:07:29.536Z,97287.69
2023-03-29T21:09:55.896Z,97295.72
2023-03-29T21:12:22.288Z,97285.03
2023-03-29T21:14:48.762Z,97283.44
2023-03-29T21:17:15.091Z,97297.91
2023-03-29T21:19:41.486Z,97295.22
2023-03-29T21:22:07.926Z,97285.56
2023-03-29T21:24:34.528Z,97292.00
2023-03-29T21:27:00.891Z,97279.69
2023-03-29T21:29:27.188Z,97291.47
2023-03-29T21:31:53.715Z,97287.97
2023-03-29T21:34:20.052Z,97279.16
2023-03-29T21:36:46.328Z,97277.56
2023-03-29T21:39:12.544Z,97276.75
2023-03-29T21:41:38.767Z,97273.28
2023-03-29T21:44:05.205Z,97275.16
2023-03-29T21:46:31.561Z,97262.06
2023-03-29T21:48:57.864Z,97260.44
2023-03-29T21:51:24.363Z,97257.75
2023-03-29T21:53:51.929Z,97262.56
2023-03-29T21:56:18.180Z,97261.00
2023-03-29T21:58:44.451Z,97255.63
2023-03-29T22:01:10.852Z,97259.41
2023-03-29T22:03:37.684Z,97263.13
2023-03-29T22:06:04.031Z,97261.53
2023-03-29T22:08:30.485Z,97252.69
2023-03-29T22:10:58.257Z,97252.69
2023-03-29T22:13:24.606Z,97252.97
2023-03-29T22:15:54.019Z,97242.28
2023-03-29T22:18:20.300Z,97239.59
2023-03-29T22:20:46.554Z,97240.66
2023-03-29T22:23:12.872Z,97243.88
2023-03-29T22:25:39.188Z,97239.06
2023-03-29T22:28:05.616Z,97233.72
2023-03-29T22:30:34.506Z,97229.47
2023-03-29T22:33:01.090Z,97216.09
2023-03-29T22:35:27.602Z,97216.09
2023-03-29T22:37:55.920Z,97219.00
2023-03-29T22:40:22.301Z,97230.50
2023-03-29T22:42:48.638Z,97219.81
2023-03-29T22:45:15.014Z,97223.84
2023-03-29T22:47:42.445Z,97211.28
2023-03-29T22:50:08.725Z,97208.06
2023-03-29T22:52:34.924Z,97214.72
2023-03-29T22:55:01.173Z,97196.56
2023-03-29T22:57:27.577Z,97185.91
2023-03-29T22:59:53.807Z,97195.75
2023-03-29T23:02:20.323Z,97189.59
2023-03-29T23:04:46.691Z,97179.72
2023-03-29T23:07:13.031Z,97171.69
2023-03-29T23:09:39.525Z,97170.63
2023-03-29T23:12:05.983Z,97164.19
2023-03-29T23:14:32.347Z,97160.19
2023-03-29T23:16:58.826Z,97159.94
2023-03-29T23:19:26.526Z,97162.31
2023-03-29T23:21:54.375Z,97155.63
2023-03-29T23:24:23.005Z,97153.50
2023-03-29T23:26:49.248Z,97155.09
2023-03-29T23:29:15.446Z,97156.44
2023-03-29T23:31:41.681Z,97148.94
2023-03-29T23:34:08.048Z,97138.00
2023-03-29T23:36:34.251Z,97139.06
2023-03-29T23:39:01.613Z,97144.13
2023-03-29T23:41:27.834Z,97139.06
2023-03-29T23:43:54.101Z,97129.69
2023-03-29T23:46:20.347Z,97135.31
2023-03-29T23:48:47.640Z,97125.72
2023-03-29T23:51:13.853Z,97138.50
2023-03-29T23:53:40.203Z,97147.03
2023-03-29T23:56:06.452Z,97154.50
2023-03-29T23:58:32.652Z,97144.09
